createdAt,value
2023-04-18T00:01:34.943Z,40.60
2023-04-18T00:04:03.261Z,40.56
2023-04-18T00:06:32.046Z,40.57
2023-04-18T00:09:00.107Z,40.41
2023-04-18T00:11:28.326Z,40.57
2023-04-18T00:13:57.520Z,40.33
2023-04-18T00:16:25.573Z,40.55
2023-04-18T00:18:53.865Z,40.52
2023-04-18T00:21:22.684Z,40.40
2023-04-18T00:23:50.841Z,40.57
2023-04-18T00:26:18.845Z,40.51
2023-04-18T00:28:47.836Z,40.53
2023-04-18T00:31:15.783Z,40.66
2023-04-18T00:33:43.762Z,40.59
2023-04-18T00:36:11.692Z,40.72
2023-04-18T00:38:39.561Z,40.77
2023-04-18T00:41:08.419Z,40.69
2023-04-18T00:43:37.200Z,40.75
2023-04-18T00:46:05.496Z,40.79
2023-04-18T00:48:33.690Z,40.90
2023-04-18T00:51:01.693Z,40.88
2023-04-18T00:53:29.934Z,40.84
2023-04-18T00:55:57.836Z,40.85
2023-04-18T00:58:26.066Z,40.95
2023-04-18T01:00:54.802Z,41.00
2023-04-18T01:03:23.158Z,40.95
2023-04-18T01:05:51.430Z,41.08
2023-04-18T01:08:19.615Z,41.15
2023-04-18T01:10:48.194Z,41.01
2023-04-18T01:13:18.144Z,41.18
2023-04-18T01:15:50.070Z,41.11
2023-04-18T01:18:18.547Z,41.27
2023-04-18T01:20:48.248Z,41.28
2023-04-18T01:23:17.177Z,41.24
2023-04-18T01:25:45.460Z,41.30
2023-04-18T01:28:14.207Z,41.37
2023-04-18T01:30:42.126Z,41.43
2023-04-18T01:33:10.014Z,41.46
2023-04-18T01:35:38.115Z,41.55
2023-04-18T01:38:06.415Z,41.53
2023-04-18T01:40:34.991Z,41.63
2023-04-18T01:43:02.990Z,41.69
2023-04-18T01:45:31.054Z,41.86
2023-04-18T01:47:59.045Z,41.97
2023-04-18T01:50:27.541Z,42.05
2023-04-18T01:52:55.614Z,42.02
2023-04-18T01:55:23.538Z,41.99
2023-04-18T01:57:51.608Z,42.13
2023-04-18T02:00:21.624Z,42.08
2023-04-18T02:02:50.524Z,42.10
2023-04-18T02:05:19.128Z,41.91
2023-04-18T02:07:49.240Z,42.19
2023-04-18T02:10:17.578Z,42.24
2023-04-18T02:12:46.382Z,42.28
2023-04-18T02:15:14.347Z,42.24
2023-04-18T02:17:42.462Z,42.33
2023-04-18T02:20:10.965Z,42.41
2023-04-18T02:22:39.579Z,42.47
2023-04-18T02:25:08.002Z,42.51
2023-04-18T02:27:36.405Z,42.55
2023-04-18T02:30:05.551Z,42.61
2023-04-18T02:32:35.222Z,42.39
2023-04-18T02:35:03.431Z,42.43
2023-04-18T02:37:31.608Z,42.49
2023-04-18T02:39:59.687Z,42.58
2023-04-18T02:42:31.570Z,42.74
2023-04-18T02:45:02.139Z,42.60
2023-04-18T02:47:37.569Z,42.78
2023-04-18T02:50:12.441Z,42.77
2023-04-18T02:52:40.850Z,42.93
2023-04-18T02:55:09.393Z,42.95
2023-04-18T02:57:39.871Z,42.83
2023-04-18T03:00:26.768Z,42.87
2023-04-18T03:03:20.487Z,42.97
2023-04-18T03:06:00.353Z,43.01
2023-04-18T03:08:29.582Z,42.66
2023-04-18T03:10:57.627Z,43.03
2023-04-18T03:13:26.599Z,42.87
2023-04-18T03:15:54.682Z,43.07
2023-04-18T03:18:23.465Z,43.01
2023-04-18T03:20:52.462Z,43.03
2023-04-18T03:23:21.094Z,43.13
2023-04-18T03:25:49.568Z,43.17
2023-04-18T03:28:17.689Z,43.10
2023-04-18T03:30:46.446Z,43.09
2023-04-18T03:33:17.132Z,43.09
2023-04-18T03:35:47.241Z,42.98
2023-04-18T03:38:16.568Z,43.08
2023-04-18T03:40:44.748Z,43.02
2023-04-18T03:43:20.422Z,43.16
2023-04-18T03:45:48.911Z,43.04
2023-04-18T03:48:18.810Z,43.14
2023-04-18T03:50:50.426Z,43.02
2023-04-18T03:53:21.483Z,43.01
2023-04-18T03:55:51.803Z,42.76
2023-04-18T03:58:24.150Z,42.68
2023-04-18T04:00:55.069Z,42.73
2023-04-18T04:03:25.717Z,42.55
2023-04-18T04:05:58.471Z,42.43
2023-04-18T04:08:30.464Z,42.47
2023-04-18T04:11:01.745Z,42.43
2023-04-18T04:13:33.500Z,42.32
2023-04-18T04:16:05.688Z,42.35
2023-04-18T04:18:36.833Z,42.32
2023-04-18T04:21:08.463Z,42.18
2023-04-18T04:23:46.493Z,42.08
2023-04-18T04:26:28.508Z,42.16
2023-04-18T04:29:06.460Z,42.09
2023-04-18T04:31:38.446Z,42.13
2023-04-18T04:34:09.434Z,41.96
2023-04-18T04:36:41.511Z,42.11
2023-04-18T04:39:13.462Z,42.15
2023-04-18T04:42:05.454Z,42.07
2023-04-18T04:44:43.542Z,42.02
2023-04-18T04:54:35.707Z,42.16
2023-04-18T04:57:05.677Z,41.96
2023-04-18T04:59:33.923Z,42.12
2023-04-18T05:02:02.064Z,41.92
2023-04-18T05:04:31.285Z,41.92
2023-04-18T05:06:59.564Z,41.92
2023-04-18T05:09:27.586Z,41.85
2023-04-18T05:11:55.820Z,41.77
2023-04-18T05:14:23.848Z,41.72
2023-04-18T05:16:51.994Z,41.99
2023-04-18T05:19:20.130Z,41.81
2023-04-18T05:21:48.246Z,41.83
2023-04-18T05:24:16.580Z,41.40
2023-04-18T05:26:44.964Z,41.68
2023-04-18T05:29:13.166Z,41.57
2023-04-18T05:31:41.205Z,41.38
2023-04-18T05:34:09.331Z,41.29
2023-04-18T05:36:37.659Z,40.94
2023-04-18T05:39:05.736Z,40.82
2023-04-18T05:41:34.320Z,40.83
2023-04-18T05:44:05.701Z,40.70
2023-04-18T05:46:34.266Z,40.25
2023-04-18T05:49:02.649Z,40.06
2023-04-18T05:51:31.419Z,39.65
2023-04-18T05:53:59.701Z,39.59
2023-04-18T05:56:27.810Z,39.68
2023-04-18T05:58:56.018Z,39.49
2023-04-18T06:01:23.916Z,39.35
2023-04-18T06:03:52.020Z,39.22
2023-04-18T06:06:20.598Z,39.04
2023-04-18T06:08:48.609Z,38.62
2023-04-18T06:11:16.881Z,38.15
2023-04-18T06:13:45.115Z,37.98
2023-04-18T06:16:13.525Z,38.05
2023-04-18T06:18:41.772Z,37.34
2023-04-18T06:21:09.908Z,37.60
2023-04-18T06:23:38.647Z,37.55
2023-04-18T06:26:07.424Z,37.18
2023-04-18T06:28:35.707Z,36.89
2023-04-18T06:31:04.113Z,36.45
2023-04-18T06:33:33.800Z,35.78
2023-04-18T06:36:01.951Z,35.43
2023-04-18T06:38:30.437Z,35.24
2023-04-18T06:40:58.574Z,35.02
2023-04-18T06:43:26.897Z,34.79
2023-04-18T06:45:56.780Z,34.38
2023-04-18T06:48:25.004Z,33.96
2023-04-18T06:50:53.054Z,33.80
2023-04-18T06:53:21.278Z,34.07
2023-04-18T06:55:49.353Z,33.99
2023-04-18T06:58:17.471Z,34.07
2023-04-18T07:00:48.970Z,34.04
2023-04-18T07:03:17.139Z,34.21
2023-04-18T07:05:45.743Z,33.89
2023-04-18T07:08:13.839Z,33.92
2023-04-18T07:10:42.763Z,33.86
2023-04-18T07:13:11.024Z,33.70
2023-04-18T07:15:39.186Z,33.42
2023-04-18T07:18:07.269Z,33.14
2023-04-18T07:20:35.556Z,32.53
2023-04-18T07:23:03.693Z,32.29
2023-04-18T07:25:31.941Z,32.34
2023-04-18T07:28:00.070Z,32.19
2023-04-18T07:30:28.294Z,32.10
2023-04-18T07:32:56.472Z,32.06
2023-04-18T07:35:24.717Z,31.99
2023-04-18T07:37:53.941Z,31.84
2023-04-18T07:40:22.284Z,31.87
2023-04-18T07:42:50.352Z,31.80
2023-04-18T07:45:19.261Z,31.86
2023-04-18T07:47:47.246Z,31.57
2023-04-18T07:50:15.411Z,31.42
2023-04-18T07:52:43.669Z,31.45
2023-04-18T07:55:12.307Z,31.34
2023-04-18T07:57:43.102Z,31.23
2023-04-18T08:00:12.714Z,30.97
2023-04-18T08:02:43.989Z,30.41
2023-04-18T08:05:12.301Z,29.81
2023-04-18T08:07:40.704Z,29.25
2023-04-18T08:10:09.236Z,28.94
2023-04-18T08:12:37.642Z,28.28
2023-04-18T08:15:06.643Z,27.82
2023-04-18T08:17:34.706Z,26.78
2023-04-18T08:20:07.407Z,26.16
2023-04-18T08:22:41.309Z,26.27
2023-04-18T08:25:18.694Z,26.25
2023-04-18T08:27:46.700Z,26.22
2023-04-18T08:30:15.398Z,26.22
2023-04-18T08:32:43.806Z,26.21
2023-04-18T08:35:11.977Z,26.27
2023-04-18T08:37:40.066Z,26.45
2023-04-18T08:40:08.511Z,26.75
2023-04-18T08:42:38.824Z,27.25
2023-04-18T08:45:07.732Z,27.49
2023-04-18T08:47:36.295Z,27.71
2023-04-18T08:50:04.868Z,27.90
2023-04-18T08:52:34.581Z,27.87
2023-04-18T08:55:02.980Z,27.86
2023-04-18T08:57:31.886Z,28.04
2023-04-18T09:00:01.672Z,28.14
2023-04-18T09:02:44.887Z,28.03
2023-04-18T09:05:19.557Z,28.11
2023-04-18T09:07:48.368Z,27.91
2023-04-18T09:10:33.345Z,28.29
2023-04-18T09:13:03.261Z,28.46
2023-04-18T09:15:31.974Z,28.04
2023-04-18T09:18:02.457Z,27.58
2023-04-18T09:20:41.527Z,27.33
2023-04-18T09:23:11.680Z,27.31
2023-04-18T09:25:48.052Z,27.46
2023-04-18T09:28:41.469Z,27.20
2023-04-18T09:31:15.453Z,27.58
2023-04-18T09:33:54.622Z,27.67
2023-04-18T09:36:24.097Z,27.78
2023-04-18T09:38:56.043Z,27.68
2023-04-18T09:41:24.794Z,27.66
2023-04-18T09:44:15.856Z,27.87
2023-04-18T09:46:47.455Z,27.93
2023-04-18T09:49:17.105Z,28.22
2023-04-18T09:51:46.411Z,28.21
2023-04-18T09:54:18.369Z,27.96
2023-04-18T09:56:47.216Z,27.88
2023-04-18T09:59:18.669Z,28.14
2023-04-18T10:01:48.681Z,28.31
2023-04-18T10:04:17.288Z,28.58
2023-04-18T10:06:45.966Z,28.65
2023-04-18T10:09:14.406Z,28.34
2023-04-18T10:11:42.780Z,27.96
2023-04-18T10:14:12.972Z,28.20
2023-04-18T10:16:42.311Z,27.94
2023-04-18T10:19:20.723Z,28.04
2023-04-18T10:21:55.940Z,28.06
2023-04-18T10:24:50.033Z,28.39
2023-04-18T10:27:18.497Z,28.20
2023-04-18T10:29:48.179Z,28.45
2023-04-18T10:32:17.671Z,28.63
2023-04-18T10:34:54.051Z,28.87
2023-04-18T10:37:22.048Z,28.97
2023-04-18T10:40:06.343Z,28.43
2023-04-18T10:42:46.855Z,28.29
2023-04-18T10:45:18.691Z,28.23
2023-04-18T10:47:46.878Z,27.63
2023-04-18T10:50:15.490Z,27.93
2023-04-18T10:52:44.051Z,28.08
2023-04-18T10:55:26.340Z,28.22
2023-04-18T10:57:56.612Z,28.49
2023-04-18T11:00:24.971Z,28.18
2023-04-18T11:02:56.647Z,28.27
2023-04-18T11:05:26.982Z,28.24
2023-04-18T11:07:55.100Z,27.58
2023-04-18T11:10:25.703Z,27.62
2023-04-18T11:12:54.851Z,28.04
2023-04-18T11:15:24.180Z,28.17
2023-04-18T11:18:00.473Z,28.46
2023-04-18T11:20:29.833Z,28.97
2023-04-18T11:22:59.321Z,29.44
2023-04-18T11:25:32.267Z,29.66
2023-04-18T11:28:01.448Z,30.13
2023-04-18T11:30:41.687Z,30.16
2023-04-18T11:33:11.682Z,30.16
2023-04-18T11:35:40.832Z,30.51
2023-04-18T11:38:10.441Z,32.18
2023-04-18T11:40:38.414Z,33.97
2023-04-18T11:43:07.381Z,35.60
2023-04-18T11:45:35.556Z,36.60
2023-04-18T11:48:03.869Z,37.78
2023-04-18T11:50:34.624Z,38.26
2023-04-18T11:53:03.018Z,38.91
2023-04-18T11:55:31.041Z,39.54
2023-04-18T11:58:03.291Z,39.98
2023-04-18T12:00:35.428Z,40.66
2023-04-18T12:03:04.930Z,41.89
2023-04-18T12:05:37.990Z,42.42
2023-04-18T12:08:22.380Z,43.03
2023-04-18T12:10:52.811Z,43.07
2023-04-18T12:13:26.876Z,43.95
2023-04-18T12:15:55.027Z,44.64
2023-04-18T12:18:23.387Z,45.09
2023-04-18T12:20:54.274Z,45.55
2023-04-18T12:23:36.871Z,45.78
2023-04-18T12:26:05.093Z,45.67
2023-04-18T12:28:34.422Z,45.71
2023-04-18T12:31:02.882Z,45.62
2023-04-18T12:33:31.045Z,45.75
2023-04-18T12:35:59.071Z,46.15
2023-04-18T12:38:27.721Z,46.74
2023-04-18T12:40:55.682Z,47.56
2023-04-18T12:43:23.646Z,48.92
2023-04-18T12:45:51.719Z,49.53
2023-04-18T12:48:20.549Z,50.81
2023-04-18T12:50:48.610Z,51.54
2023-04-18T12:53:17.027Z,51.97
2023-04-18T12:55:45.048Z,52.72
2023-04-18T12:58:18.752Z,53.42
2023-04-18T13:00:47.014Z,54.44
2023-04-18T13:03:15.485Z,54.38
2023-04-18T13:05:43.759Z,55.38
2023-04-18T13:08:17.760Z,56.76
2023-04-18T13:10:47.843Z,57.65
2023-04-18T13:13:16.278Z,57.94
2023-04-18T13:15:44.294Z,57.74
2023-04-18T13:18:12.416Z,58.50
2023-04-18T13:20:40.792Z,59.29
2023-04-18T13:23:09.029Z,59.45
2023-04-18T13:25:37.138Z,60.12
2023-04-18T13:28:05.469Z,61.12
2023-04-18T13:30:35.891Z,61.97
2023-04-18T13:33:04.587Z,61.61
2023-04-18T13:35:32.858Z,62.14
2023-04-18T13:38:01.114Z,61.87
2023-04-18T13:40:29.439Z,62.65
2023-04-18T13:42:57.892Z,62.75
2023-04-18T13:45:25.899Z,62.37
2023-04-18T13:47:54.147Z,62.49
2023-04-18T13:50:23.328Z,62.55
2023-04-18T13:52:52.133Z,62.79
2023-04-18T13:55:20.380Z,62.75
2023-04-18T13:57:48.659Z,62.54
2023-04-18T14:00:17.584Z,62.41
2023-04-18T14:02:45.777Z,61.87
2023-04-18T14:05:14.092Z,61.78
2023-04-18T14:07:42.381Z,61.67
2023-04-18T14:10:11.329Z,61.73
2023-04-18T14:12:40.115Z,61.75
2023-04-18T14:15:09.273Z,61.66
2023-04-18T14:17:37.823Z,61.38
2023-04-18T14:20:06.847Z,61.56
2023-04-18T14:22:35.835Z,61.64
2023-04-18T14:25:04.326Z,61.59
2023-04-18T14:27:33.112Z,61.39
2023-04-18T14:30:01.014Z,59.94
2023-04-18T14:32:29.840Z,59.06
2023-04-18T14:34:59.236Z,58.28
2023-04-18T14:37:27.570Z,57.08
2023-04-18T14:39:56.037Z,55.97
2023-04-18T14:42:24.327Z,54.86
2023-04-18T14:45:11.869Z,54.10
2023-04-18T14:47:40.741Z,53.43
2023-04-18T14:50:09.724Z,52.92
2023-04-18T14:52:38.897Z,52.89
2023-04-18T14:55:08.115Z,52.70
2023-04-18T14:57:37.381Z,51.96
2023-04-18T15:00:09.723Z,52.00
2023-04-18T15:02:38.046Z,51.48
2023-04-18T15:05:09.819Z,51.52
2023-04-18T15:07:38.536Z,51.43
2023-04-18T15:10:07.603Z,51.19
2023-04-18T15:12:35.800Z,50.60
2023-04-18T15:15:04.261Z,51.21
2023-04-18T15:17:33.173Z,50.97
2023-04-18T15:20:01.366Z,51.08
2023-04-18T15:22:29.536Z,50.65
2023-04-18T15:24:57.944Z,50.57
2023-04-18T15:27:26.073Z,51.06
2023-04-18T15:29:54.957Z,50.83
2023-04-18T15:32:23.378Z,50.81
2023-04-18T15:34:51.862Z,50.91
2023-04-18T15:37:20.234Z,50.68
2023-04-18T15:39:48.174Z,50.75
2023-04-18T15:42:16.213Z,50.78
2023-04-18T15:44:44.138Z,50.89
2023-04-18T15:47:12.170Z,50.70
2023-04-18T15:49:40.233Z,50.65
2023-04-18T15:52:08.636Z,50.78
2023-04-18T15:54:41.635Z,50.63
2023-04-18T15:57:10.229Z,50.74
2023-04-18T15:59:38.585Z,50.64
2023-04-18T16:02:08.309Z,50.62
2023-04-18T16:04:36.540Z,50.38
2023-04-18T16:07:05.154Z,50.19
2023-04-18T16:09:33.472Z,49.81
2023-04-18T16:12:03.723Z,50.10
2023-04-18T16:14:32.209Z,50.04
2023-04-18T16:17:00.630Z,49.86
2023-04-18T16:19:28.691Z,49.84
2023-04-18T16:21:56.912Z,49.55
2023-04-18T16:24:25.757Z,49.38
2023-04-18T16:26:55.656Z,49.29
2023-04-18T16:29:23.897Z,49.43
2023-04-18T16:31:52.130Z,48.97
2023-04-18T16:34:20.398Z,48.61
2023-04-18T16:36:50.794Z,48.53
2023-04-18T16:39:19.442Z,48.39
2023-04-18T16:41:47.433Z,48.35
2023-04-18T16:44:16.062Z,48.42
2023-04-18T16:46:44.483Z,48.41
2023-04-18T16:49:12.756Z,48.37
2023-04-18T16:51:40.862Z,48.50
2023-04-18T16:54:09.137Z,48.61
2023-04-18T16:56:37.775Z,48.80
2023-04-18T16:59:05.652Z,48.82
2023-04-18T17:01:34.111Z,49.14
2023-04-18T17:04:02.557Z,49.11
2023-04-18T17:06:32.132Z,49.18
2023-04-18T17:09:00.166Z,49.23
2023-04-18T17:11:28.619Z,49.35
2023-04-18T17:13:57.040Z,49.45
2023-04-18T17:16:25.494Z,49.57
2023-04-18T17:18:54.080Z,49.61
2023-04-18T17:21:22.163Z,49.59
2023-04-18T17:23:50.217Z,49.57
2023-04-18T17:26:19.052Z,49.52
2023-04-18T17:28:47.078Z,49.81
2023-04-18T17:31:15.847Z,49.80
2023-04-18T17:33:44.902Z,49.87
2023-04-18T17:36:13.101Z,49.88
2023-04-18T17:38:41.446Z,49.87
2023-04-18T17:41:09.515Z,49.80
2023-04-18T17:43:37.818Z,49.85
2023-04-18T17:46:06.293Z,49.91
2023-04-18T17:48:34.267Z,49.95
2023-04-18T17:51:02.759Z,50.11
2023-04-18T17:53:32.314Z,50.14
2023-04-18T17:56:01.034Z,50.10
2023-04-18T17:58:29.601Z,50.19
2023-04-18T18:00:57.876Z,50.54
2023-04-18T18:03:26.159Z,50.48
2023-04-18T18:05:57.515Z,50.65
2023-04-18T18:08:25.913Z,50.52
2023-04-18T18:10:53.970Z,50.50
2023-04-18T18:13:22.334Z,50.70
2023-04-18T18:15:50.419Z,50.82
2023-04-18T18:18:29.887Z,50.90
2023-04-18T18:20:58.444Z,50.92
2023-04-18T18:23:26.840Z,51.11
2023-04-18T18:25:54.882Z,51.39
2023-04-18T18:28:22.925Z,51.57
2023-04-18T18:30:51.421Z,51.48
2023-04-18T18:33:19.798Z,51.52
2023-04-18T18:35:47.805Z,51.42
2023-04-18T18:38:15.958Z,51.51
2023-04-18T18:40:44.152Z,51.43
2023-04-18T18:43:13.041Z,51.42
2023-04-18T18:45:41.160Z,51.50
2023-04-18T18:48:10.277Z,51.46
2023-04-18T18:50:38.692Z,51.22
2023-04-18T18:53:09.022Z,51.35
2023-04-18T18:55:37.405Z,51.22
2023-04-18T18:58:08.076Z,50.92
2023-04-18T19:00:36.712Z,50.73
2023-04-18T19:03:04.908Z,50.99
2023-04-18T19:05:33.106Z,51.01
2023-04-18T19:08:04.107Z,51.02
2023-04-18T19:10:32.491Z,51.21
2023-04-18T19:13:00.679Z,51.51
2023-04-18T19:15:28.822Z,51.97
2023-04-18T19:17:57.140Z,52.43
2023-04-18T19:20:28.744Z,52.89
2023-04-18T19:22:57.443Z,53.40
2023-04-18T19:25:25.660Z,53.78
2023-04-18T19:27:54.020Z,54.21
2023-04-18T19:30:22.266Z,54.47
2023-04-18T19:32:50.714Z,54.51
2023-04-18T19:35:18.948Z,54.39
2023-04-18T19:37:47.194Z,54.48
2023-04-18T19:40:15.195Z,54.62
2023-04-18T19:42:43.526Z,54.77
2023-04-18T19:45:12.285Z,54.85
2023-04-18T19:47:44.073Z,54.59
2023-04-18T19:50:12.337Z,54.60
2023-04-18T19:52:40.910Z,54.35
2023-04-18T19:55:09.777Z,54.20
2023-04-18T19:57:42.153Z,54.29
2023-04-18T20:00:12.429Z,54.44
2023-04-18T20:02:41.299Z,53.94
2023-04-18T20:05:10.042Z,53.90
2023-04-18T20:07:39.759Z,53.98
2023-04-18T20:10:09.232Z,53.94
2023-04-18T20:12:38.073Z,54.04
2023-04-18T20:15:06.832Z,53.96
2023-04-18T20:17:35.230Z,53.77
2023-04-18T20:20:04.530Z,53.39
2023-04-18T20:22:33.194Z,53.05
2023-04-18T20:25:01.125Z,52.60
2023-04-18T20:27:29.145Z,52.25
2023-04-18T20:29:57.520Z,52.03
2023-04-18T20:32:26.652Z,51.69
2023-04-18T20:34:54.788Z,51.60
2023-04-18T20:37:22.910Z,51.81
2023-04-18T20:39:50.887Z,51.65
2023-04-18T20:42:19.389Z,51.91
2023-04-18T20:44:47.649Z,51.53
2023-04-18T20:47:16.048Z,51.48
2023-04-18T20:49:44.109Z,51.70
2023-04-18T20:52:14.393Z,52.03
2023-04-18T20:54:42.483Z,51.94
2023-04-18T20:57:10.415Z,52.07
2023-04-18T20:59:38.412Z,52.18
2023-04-18T21:02:07.059Z,52.84
2023-04-18T21:04:35.730Z,53.15
2023-04-18T21:07:03.698Z,53.35
2023-04-18T21:09:36.478Z,53.02
2023-04-18T21:12:05.343Z,52.65
2023-04-18T21:14:33.582Z,52.27
2023-04-18T21:17:01.873Z,52.22
2023-04-18T21:19:30.514Z,52.07
2023-04-18T21:21:58.483Z,51.80
2023-04-18T21:24:26.616Z,51.70
2023-04-18T21:26:54.613Z,53.59
2023-04-18T21:29:22.600Z,54.85
2023-04-18T21:31:51.709Z,55.42
2023-04-18T21:34:20.267Z,55.73
2023-04-18T21:36:48.173Z,55.25
2023-04-18T21:39:16.195Z,54.79
2023-04-18T21:41:44.505Z,54.69
2023-04-18T21:44:12.989Z,54.59
2023-04-18T21:46:41.138Z,53.95
2023-04-18T21:49:09.143Z,54.72
2023-04-18T21:51:37.167Z,55.34
2023-04-18T21:54:07.244Z,55.42
2023-04-18T21:56:35.298Z,55.45
2023-04-18T21:59:03.298Z,55.50
2023-04-18T22:01:33.201Z,55.67
2023-04-18T22:04:02.111Z,55.87
2023-04-18T22:06:32.407Z,56.12
2023-04-18T22:09:01.060Z,55.89
2023-04-18T22:11:29.628Z,55.85
2023-04-18T22:14:00.480Z,55.74
2023-04-18T22:16:28.973Z,55.19
2023-04-18T22:18:57.750Z,54.50
2023-04-18T22:21:25.931Z,53.90
2023-04-18T22:23:54.002Z,53.49
2023-04-18T22:26:22.195Z,53.19
2023-04-18T22:28:50.131Z,52.71
2023-04-18T22:31:18.177Z,52.19
2023-04-18T22:33:47.609Z,51.78
2023-04-18T22:36:15.500Z,51.49
2023-04-18T22:38:43.438Z,51.39
2023-04-18T22:41:11.648Z,51.24
2023-04-18T22:43:39.624Z,51.03
2023-04-18T22:46:07.735Z,50.85
2023-04-18T22:48:36.144Z,50.61
2023-04-18T22:51:04.268Z,50.23
2023-04-18T22:53:32.695Z,49.85
2023-04-18T22:56:00.927Z,49.68
2023-04-18T22:58:29.785Z,48.83
2023-04-18T23:00:57.696Z,48.73
2023-04-18T23:03:26.136Z,48.35
2023-04-18T23:05:54.323Z,48.04
2023-04-18T23:08:22.708Z,47.51
2023-04-18T23:10:50.922Z,46.87
2023-04-18T23:13:18.940Z,46.55
2023-04-18T23:15:46.916Z,46.72
2023-04-18T23:18:15.076Z,46.40
2023-04-18T23:20:43.122Z,45.93
2023-04-18T23:23:11.166Z,45.58
2023-04-18T23:25:39.269Z,45.32
2023-04-18T23:28:07.951Z,45.32
2023-04-18T23:30:37.254Z,44.89
2023-04-18T23:33:05.937Z,45.09
2023-04-18T23:35:34.174Z,45.13
2023-04-18T23:38:02.140Z,45.12
2023-04-18T23:40:30.123Z,45.20
2023-04-18T23:42:58.122Z,45.26
2023-04-18T23:45:26.181Z,45.54
2023-04-18T23:47:54.541Z,45.60
2023-04-18T23:50:22.645Z,45.85
2023-04-18T23:52:50.867Z,45.99
2023-04-18T23:55:18.853Z,45.94
2023-04-18T23:57:46.898Z,46.09
